sensor_id;sensor_type;location;lat;lon;timestamp;temperature;humidity
56044;DHT22;41912;51.022;3.664;2022-07-10T00:02:10;16.80;93.20
56044;DHT22;41912;51.022;3.664;2022-07-10T00:04:35;16.80;93.40
56044;DHT22;41912;51.022;3.664;2022-07-10T00:07:01;16.80;93.50
56044;DHT22;41912;51.022;3.664;2022-07-10T00:09:27;16.70;93.50
56044;DHT22;41912;51.022;3.664;2022-07-10T00:11:54;16.70;93.50
56044;DHT22;41912;51.022;3.664;2022-07-10T00:14:19;16.60;93.80
56044;DHT22;41912;51.022;3.664;2022-07-10T00:16:45;16.60;93.80
56044;DHT22;41912;51.022;3.664;2022-07-10T00:19:11;16.60;93.70
56044;DHT22;41912;51.022;3.664;2022-07-10T00:21:37;16.70;93.60
56044;DHT22;41912;51.022;3.664;2022-07-10T00:24:06;16.60;93.50
56044;DHT22;41912;51.022;3.664;2022-07-10T00:26:31;16.60;93.50
56044;DHT22;41912;51.022;3.664;2022-07-10T00:28:57;16.60;93.60
56044;DHT22;41912;51.022;3.664;2022-07-10T00:31:22;16.60;93.60
56044;DHT22;41912;51.022;3.664;2022-07-10T00:33:48;16.60;93.70
56044;DHT22;41912;51.022;3.664;2022-07-10T00:36:14;16.50;93.80
56044;DHT22;41912;51.022;3.664;2022-07-10T00:38:40;16.50;93.90
56044;DHT22;41912;51.022;3.664;2022-07-10T00:41:06;16.40;93.80
56044;DHT22;41912;51.022;3.664;2022-07-10T00:43:51;16.40;93.90
56044;DHT22;41912;51.022;3.664;2022-07-10T00:46:16;16.40;94.10
56044;DHT22;41912;51.022;3.664;2022-07-10T00:48:46;16.40;94.30
56044;DHT22;41912;51.022;3.664;2022-07-10T00:51:12;16.40;94.30
56044;DHT22;41912;51.022;3.664;2022-07-10T00:53:38;16.40;94.30
56044;DHT22;41912;51.022;3.664;2022-07-10T00:56:05;16.40;94.30
56044;DHT22;41912;51.022;3.664;2022-07-10T00:58:32;16.40;94.30
56044;DHT22;41912;51.022;3.664;2022-07-10T01:00:59;16.30;94.30
56044;DHT22;41912;51.022;3.664;2022-07-10T01:03:25;16.30;94.50
56044;DHT22;41912;51.022;3.664;2022-07-10T01:05:51;16.20;94.60
56044;DHT22;41912;51.022;3.664;2022-07-10T01:08:16;16.20;94.60
56044;DHT22;41912;51.022;3.664;2022-07-10T01:10:42;16.20;94.60
56044;DHT22;41912;51.022;3.664;2022-07-10T01:13:08;16.20;94.60
56044;DHT22;41912;51.022;3.664;2022-07-10T01:15:34;16.20;94.50
56044;DHT22;41912;51.022;3.664;2022-07-10T01:18:01;16.10;94.40
56044;DHT22;41912;51.022;3.664;2022-07-10T01:20:31;16.10;94.50
56044;DHT22;41912;51.022;3.664;2022-07-10T01:22:57;16.10;94.60
56044;DHT22;41912;51.022;3.664;2022-07-10T01:25:23;16.10;94.60
56044;DHT22;41912;51.022;3.664;2022-07-10T01:27:50;16.00;94.60
56044;DHT22;41912;51.022;3.664;2022-07-10T01:30:16;15.90;94.70
56044;DHT22;41912;51.022;3.664;2022-07-10T01:32:42;15.90;94.70
56044;DHT22;41912;51.022;3.664;2022-07-10T01:35:08;15.80;94.80
56044;DHT22;41912;51.022;3.664;2022-07-10T01:37:34;15.80;94.90
56044;DHT22;41912;51.022;3.664;2022-07-10T01:39:59;15.80;95.00
56044;DHT22;41912;51.022;3.664;2022-07-10T01:42:25;15.80;95.00
56044;DHT22;41912;51.022;3.664;2022-07-10T01:44:50;15.80;95.10
56044;DHT22;41912;51.022;3.664;2022-07-10T01:47:16;15.70;95.00
56044;DHT22;41912;51.022;3.664;2022-07-10T01:49:42;15.70;95.10
56044;DHT22;41912;51.022;3.664;2022-07-10T01:52:07;15.70;95.20
56044;DHT22;41912;51.022;3.664;2022-07-10T01:54:37;15.70;95.30
56044;DHT22;41912;51.022;3.664;2022-07-10T01:57:02;15.60;95.30
56044;DHT22;41912;51.022;3.664;2022-07-10T01:59:28;15.60;95.70
56044;DHT22;41912;51.022;3.664;2022-07-10T02:01:54;15.60;95.40
56044;DHT22;41912;51.022;3.664;2022-07-10T02:04:19;15.60;95.40
56044;DHT22;41912;51.022;3.664;2022-07-10T02:07:03;15.60;95.70
56044;DHT22;41912;51.022;3.664;2022-07-10T02:09:29;15.60;95.30
56044;DHT22;41912;51.022;3.664;2022-07-10T02:11:54;15.50;95.50
56044;DHT22;41912;51.022;3.664;2022-07-10T02:14:20;15.50;95.50
56044;DHT22;41912;51.022;3.664;2022-07-10T02:16:46;15.50;95.60
56044;DHT22;41912;51.022;3.664;2022-07-10T02:19:11;15.50;95.60
56044;DHT22;41912;51.022;3.664;2022-07-10T02:21:37;15.50;95.70
56044;DHT22;41912;51.022;3.664;2022-07-10T02:24:02;15.50;95.70
56044;DHT22;41912;51.022;3.664;2022-07-10T02:26:28;15.50;95.70
56044;DHT22;41912;51.022;3.664;2022-07-10T02:28:54;15.40;95.60
56044;DHT22;41912;51.022;3.664;2022-07-10T02:31:19;15.40;95.40
56044;DHT22;41912;51.022;3.664;2022-07-10T02:33:45;15.40;95.50
56044;DHT22;41912;51.022;3.664;2022-07-10T02:36:11;15.40;95.70
56044;DHT22;41912;51.022;3.664;2022-07-10T02:38:36;15.40;95.70
56044;DHT22;41912;51.022;3.664;2022-07-10T02:41:02;15.50;95.60
56044;DHT22;41912;51.022;3.664;2022-07-10T02:43:27;15.40;95.50
56044;DHT22;41912;51.022;3.664;2022-07-10T02:45:53;15.40;95.80
56044;DHT22;41912;51.022;3.664;2022-07-10T02:48:18;15.40;95.40
56044;DHT22;41912;51.022;3.664;2022-07-10T02:50:44;15.30;95.50
56044;DHT22;41912;51.022;3.664;2022-07-10T02:53:10;15.30;95.60
56044;DHT22;41912;51.022;3.664;2022-07-10T02:55:35;15.30;95.70
56044;DHT22;41912;51.022;3.664;2022-07-10T02:58:01;15.30;95.70
56044;DHT22;41912;51.022;3.664;2022-07-10T03:00:27;15.20;95.60
56044;DHT22;41912;51.022;3.664;2022-07-10T03:02:54;15.20;95.60
56044;DHT22;41912;51.022;3.664;2022-07-10T03:05:20;15.20;95.70
56044;DHT22;41912;51.022;3.664;2022-07-10T03:07:46;15.20;95.70
56044;DHT22;41912;51.022;3.664;2022-07-10T03:10:12;15.10;95.70
56044;DHT22;41912;51.022;3.664;2022-07-10T03:12:37;15.10;95.70
56044;DHT22;41912;51.022;3.664;2022-07-10T03:15:05;15.10;95.70
56044;DHT22;41912;51.022;3.664;2022-07-10T03:17:31;15.10;95.80
56044;DHT22;41912;51.022;3.664;2022-07-10T03:20:09;15.10;95.70
56044;DHT22;41912;51.022;3.664;2022-07-10T03:22:35;15.10;95.70
56044;DHT22;41912;51.022;3.664;2022-07-10T03:25:01;15.10;95.70
56044;DHT22;41912;51.022;3.664;2022-07-10T03:27:26;15.10;95.70
56044;DHT22;41912;51.022;3.664;2022-07-10T03:29:52;15.10;95.70
56044;DHT22;41912;51.022;3.664;2022-07-10T03:32:18;15.00;95.60
56044;DHT22;41912;51.022;3.664;2022-07-10T03:34:43;15.00;95.60
56044;DHT22;41912;51.022;3.664;2022-07-10T03:37:15;15.00;95.70
56044;DHT22;41912;51.022;3.664;2022-07-10T03:39:47;15.00;95.60
56044;DHT22;41912;51.022;3.664;2022-07-10T03:42:15;15.00;95.70
56044;DHT22;41912;51.022;3.664;2022-07-10T03:44:47;14.90;95.80
56044;DHT22;41912;51.022;3.664;2022-07-10T03:47:12;14.80;96.00
56044;DHT22;41912;51.022;3.664;2022-07-10T03:49:38;14.80;96.20
56044;DHT22;41912;51.022;3.664;2022-07-10T03:52:04;14.80;96.20
56044;DHT22;41912;51.022;3.664;2022-07-10T03:54:30;14.80;96.00
56044;DHT22;41912;51.022;3.664;2022-07-10T03:56:57;14.80;95.90
56044;DHT22;41912;51.022;3.664;2022-07-10T03:59:41;14.80;95.90
56044;DHT22;41912;51.022;3.664;2022-07-10T04:02:07;14.80;95.90
56044;DHT22;41912;51.022;3.664;2022-07-10T04:04:32;14.80;95.90
56044;DHT22;41912;51.022;3.664;2022-07-10T04:06:58;14.80;96.00
56044;DHT22;41912;51.022;3.664;2022-07-10T04:09:24;14.80;96.00
56044;DHT22;41912;51.022;3.664;2022-07-10T04:11:50;14.80;96.00
56044;DHT22;41912;51.022;3.664;2022-07-10T04:14:15;14.80;96.10
56044;DHT22;41912;51.022;3.664;2022-07-10T04:16:41;14.80;96.40
56044;DHT22;41912;51.022;3.664;2022-07-10T04:19:06;14.80;96.10
56044;DHT22;41912;51.022;3.664;2022-07-10T04:21:32;14.80;96.20
56044;DHT22;41912;51.022;3.664;2022-07-10T04:23:58;14.80;96.20
56044;DHT22;41912;51.022;3.664;2022-07-10T04:26:23;14.80;96.40
56044;DHT22;41912;51.022;3.664;2022-07-10T04:28:52;14.80;96.50
56044;DHT22;41912;51.022;3.664;2022-07-10T04:31:17;14.80;96.50
56044;DHT22;41912;51.022;3.664;2022-07-10T04:33:43;14.80;96.50
56044;DHT22;41912;51.022;3.664;2022-07-10T04:36:09;14.80;96.50
56044;DHT22;41912;51.022;3.664;2022-07-10T04:38:34;14.80;96.50
56044;DHT22;41912;51.022;3.664;2022-07-10T04:41:00;14.80;96.50
56044;DHT22;41912;51.022;3.664;2022-07-10T04:43:26;14.80;97.00
56044;DHT22;41912;51.022;3.664;2022-07-10T04:45:51;14.80;96.70
56044;DHT22;41912;51.022;3.664;2022-07-10T04:48:17;14.80;96.80
56044;DHT22;41912;51.022;3.664;2022-07-10T04:50:43;14.80;96.90
56044;DHT22;41912;51.022;3.664;2022-07-10T04:53:08;14.80;97.00
56044;DHT22;41912;51.022;3.664;2022-07-10T04:55:37;15.00;97.20
56044;DHT22;41912;51.022;3.664;2022-07-10T04:58:02;14.90;97.20
56044;DHT22;41912;51.022;3.664;2022-07-10T05:00:28;14.90;97.30
56044;DHT22;41912;51.022;3.664;2022-07-10T05:03:00;14.90;97.30
56044;DHT22;41912;51.022;3.664;2022-07-10T05:05:25;14.90;97.50
56044;DHT22;41912;51.022;3.664;2022-07-10T05:07:51;15.00;97.60
56044;DHT22;41912;51.022;3.664;2022-07-10T05:10:20;15.00;97.70
56044;DHT22;41912;51.022;3.664;2022-07-10T05:12:45;15.10;97.80
56044;DHT22;41912;51.022;3.664;2022-07-10T05:15:11;15.10;97.90
56044;DHT22;41912;51.022;3.664;2022-07-10T05:20:02;15.20;97.90
56044;DHT22;41912;51.022;3.664;2022-07-10T05:22:28;15.30;97.90
56044;DHT22;41912;51.022;3.664;2022-07-10T05:24:56;15.30;97.80
56044;DHT22;41912;51.022;3.664;2022-07-10T05:27:36;15.30;97.80
56044;DHT22;41912;51.022;3.664;2022-07-10T05:30:02;15.40;97.90
56044;DHT22;41912;51.022;3.664;2022-07-10T05:32:28;15.50;98.00
56044;DHT22;41912;51.022;3.664;2022-07-10T05:34:53;15.50;98.00
56044;DHT22;41912;51.022;3.664;2022-07-10T05:37:19;15.50;97.90
56044;DHT22;41912;51.022;3.664;2022-07-10T05:39:45;15.60;98.00
56044;DHT22;41912;51.022;3.664;2022-07-10T05:42:10;15.60;98.20
56044;DHT22;41912;51.022;3.664;2022-07-10T05:44:36;15.70;98.30
56044;DHT22;41912;51.022;3.664;2022-07-10T05:47:01;15.70;98.20
56044;DHT22;41912;51.022;3.664;2022-07-10T05:49:27;15.80;98.20
56044;DHT22;41912;51.022;3.664;2022-07-10T05:51:53;15.90;98.20
56044;DHT22;41912;51.022;3.664;2022-07-10T05:54:18;15.90;98.20
56044;DHT22;41912;51.022;3.664;2022-07-10T05:56:44;16.00;98.20
56044;DHT22;41912;51.022;3.664;2022-07-10T05:59:10;16.00;98.20
56044;DHT22;41912;51.022;3.664;2022-07-10T06:01:36;16.10;98.20
56044;DHT22;41912;51.022;3.664;2022-07-10T06:04:01;16.10;98.00
56044;DHT22;41912;51.022;3.664;2022-07-10T06:06:27;16.20;97.80
56044;DHT22;41912;51.022;3.664;2022-07-10T06:08:52;16.20;97.70
56044;DHT22;41912;51.022;3.664;2022-07-10T06:11:18;16.30;97.60
56044;DHT22;41912;51.022;3.664;2022-07-10T06:13:43;16.40;97.50
56044;DHT22;41912;51.022;3.664;2022-07-10T06:16:09;16.40;97.20
56044;DHT22;41912;51.022;3.664;2022-07-10T06:18:35;16.50;97.10
56044;DHT22;41912;51.022;3.664;2022-07-10T06:21:00;16.60;97.20
56044;DHT22;41912;51.022;3.664;2022-07-10T06:23:26;16.60;97.10
56044;DHT22;41912;51.022;3.664;2022-07-10T06:25:51;16.70;97.00
56044;DHT22;41912;51.022;3.664;2022-07-10T06:28:17;16.80;96.90
56044;DHT22;41912;51.022;3.664;2022-07-10T06:30:44;16.80;96.90
56044;DHT22;41912;51.022;3.664;2022-07-10T06:33:10;16.80;97.00
56044;DHT22;41912;51.022;3.664;2022-07-10T06:35:35;16.90;96.60
56044;DHT22;41912;51.022;3.664;2022-07-10T06:38:01;16.90;96.50
56044;DHT22;41912;51.022;3.664;2022-07-10T06:40:29;17.00;96.20
56044;DHT22;41912;51.022;3.664;2022-07-10T06:42:55;17.10;96.00
56044;DHT22;41912;51.022;3.664;2022-07-10T06:45:21;17.10;96.00
56044;DHT22;41912;51.022;3.664;2022-07-10T06:47:46;17.20;95.50
56044;DHT22;41912;51.022;3.664;2022-07-10T06:50:22;17.30;95.10
56044;DHT22;41912;51.022;3.664;2022-07-10T06:52:49;17.30;94.90
56044;DHT22;41912;51.022;3.664;2022-07-10T06:55:15;17.30;94.60
56044;DHT22;41912;51.022;3.664;2022-07-10T06:57:41;17.40;94.50
56044;DHT22;41912;51.022;3.664;2022-07-10T07:00:08;17.50;94.60
56044;DHT22;41912;51.022;3.664;2022-07-10T07:02:35;17.50;94.50
56044;DHT22;41912;51.022;3.664;2022-07-10T07:05:00;17.60;94.50
56044;DHT22;41912;51.022;3.664;2022-07-10T07:07:26;17.60;94.60
56044;DHT22;41912;51.022;3.664;2022-07-10T07:09:52;17.70;94.80
56044;DHT22;41912;51.022;3.664;2022-07-10T07:12:18;17.70;94.60
56044;DHT22;41912;51.022;3.664;2022-07-10T07:14:44;17.80;94.20
56044;DHT22;41912;51.022;3.664;2022-07-10T07:17:10;17.80;94.20
56044;DHT22;41912;51.022;3.664;2022-07-10T07:19:38;17.90;94.10
56044;DHT22;41912;51.022;3.664;2022-07-10T07:22:23;18.00;94.20
56044;DHT22;41912;51.022;3.664;2022-07-10T07:25:09;18.00;93.20
56044;DHT22;41912;51.022;3.664;2022-07-10T07:27:36;18.10;93.40
56044;DHT22;41912;51.022;3.664;2022-07-10T07:30:10;18.10;93.40
56044;DHT22;41912;51.022;3.664;2022-07-10T07:32:36;18.20;93.10
56044;DHT22;41912;51.022;3.664;2022-07-10T07:35:03;18.20;93.40
56044;DHT22;41912;51.022;3.664;2022-07-10T07:37:39;18.20;93.50
56044;DHT22;41912;51.022;3.664;2022-07-10T07:40:06;18.40;93.60
56044;DHT22;41912;51.022;3.664;2022-07-10T07:42:32;18.40;93.00
56044;DHT22;41912;51.022;3.664;2022-07-10T07:44:58;18.50;92.70
56044;DHT22;41912;51.022;3.664;2022-07-10T07:47:24;18.50;92.80
56044;DHT22;41912;51.022;3.664;2022-07-10T07:49:49;18.60;93.00
56044;DHT22;41912;51.022;3.664;2022-07-10T07:52:15;18.60;92.90
56044;DHT22;41912;51.022;3.664;2022-07-10T07:54:41;18.70;92.80
56044;DHT22;41912;51.022;3.664;2022-07-10T07:57:06;18.80;92.30
56044;DHT22;41912;51.022;3.664;2022-07-10T07:59:32;18.80;92.40
56044;DHT22;41912;51.022;3.664;2022-07-10T08:01:58;18.80;92.30
56044;DHT22;41912;51.022;3.664;2022-07-10T08:04:23;18.90;92.00
56044;DHT22;41912;51.022;3.664;2022-07-10T08:06:49;18.90;92.10
56044;DHT22;41912;51.022;3.664;2022-07-10T08:09:19;19.00;91.40
56044;DHT22;41912;51.022;3.664;2022-07-10T08:11:45;19.00;91.40
56044;DHT22;41912;51.022;3.664;2022-07-10T08:14:10;19.00;91.70
56044;DHT22;41912;51.022;3.664;2022-07-10T08:16:36;19.20;92.00
56044;DHT22;41912;51.022;3.664;2022-07-10T08:19:02;19.20;91.70
56044;DHT22;41912;51.022;3.664;2022-07-10T08:21:27;19.30;91.70
56044;DHT22;41912;51.022;3.664;2022-07-10T08:23:53;19.40;91.30
56044;DHT22;41912;51.022;3.664;2022-07-10T08:26:19;19.40;91.70
56044;DHT22;41912;51.022;3.664;2022-07-10T08:28:45;19.50;91.70
56044;DHT22;41912;51.022;3.664;2022-07-10T08:33:36;19.60;90.70
56044;DHT22;41912;51.022;3.664;2022-07-10T08:36:02;19.70;91.60
56044;DHT22;41912;51.022;3.664;2022-07-10T08:43:40;19.80;91.30
56044;DHT22;41912;51.022;3.664;2022-07-10T08:48:32;19.90;91.00
56044;DHT22;41912;51.022;3.664;2022-07-10T08:51:03;20.00;91.10
56044;DHT22;41912;51.022;3.664;2022-07-10T08:53:31;20.10;91.00
56044;DHT22;41912;51.022;3.664;2022-07-10T08:55:58;20.10;90.00
56044;DHT22;41912;51.022;3.664;2022-07-10T09:00:49;20.30;89.20
56044;DHT22;41912;51.022;3.664;2022-07-10T09:03:15;20.40;90.30
56044;DHT22;41912;51.022;3.664;2022-07-10T09:05:41;20.40;90.10
56044;DHT22;41912;51.022;3.664;2022-07-10T09:08:26;20.50;89.60
56044;DHT22;41912;51.022;3.664;2022-07-10T09:11:17;20.60;88.60
56044;DHT22;41912;51.022;3.664;2022-07-10T09:13:57;20.60;88.30
56044;DHT22;41912;51.022;3.664;2022-07-10T09:16:27;20.60;88.20
56044;DHT22;41912;51.022;3.664;2022-07-10T09:18:53;20.70;88.00
56044;DHT22;41912;51.022;3.664;2022-07-10T09:21:19;20.80;89.60
56044;DHT22;41912;51.022;3.664;2022-07-10T09:23:45;20.80;89.50
56044;DHT22;41912;51.022;3.664;2022-07-10T09:26:11;20.90;90.20
56044;DHT22;41912;51.022;3.664;2022-07-10T09:28:37;20.90;88.80
56044;DHT22;41912;51.022;3.664;2022-07-10T09:31:03;20.90;85.40
56044;DHT22;41912;51.022;3.664;2022-07-10T09:33:30;21.00;85.80
56044;DHT22;41912;51.022;3.664;2022-07-10T09:46:09;21.20;86.80
56044;DHT22;41912;51.022;3.664;2022-07-10T09:48:34;21.30;86.90
56044;DHT22;41912;51.022;3.664;2022-07-10T09:53:38;21.30;85.20
56044;DHT22;41912;51.022;3.664;2022-07-10T09:56:13;21.40;85.30
56044;DHT22;41912;51.022;3.664;2022-07-10T09:58:39;21.40;85.00
56044;DHT22;41912;51.022;3.664;2022-07-10T10:01:08;21.50;85.80
56044;DHT22;41912;51.022;3.664;2022-07-10T10:03:36;21.60;85.90
56044;DHT22;41912;51.022;3.664;2022-07-10T10:06:15;21.60;86.40
56044;DHT22;41912;51.022;3.664;2022-07-10T10:09:15;21.80;85.50
56044;DHT22;41912;51.022;3.664;2022-07-10T10:11:44;21.80;82.90
56044;DHT22;41912;51.022;3.664;2022-07-10T10:14:12;21.80;83.50
56044;DHT22;41912;51.022;3.664;2022-07-10T10:16:43;21.90;83.70
56044;DHT22;41912;51.022;3.664;2022-07-10T10:19:19;21.90;82.70
56044;DHT22;41912;51.022;3.664;2022-07-10T10:21:51;22.00;83.50
56044;DHT22;41912;51.022;3.664;2022-07-10T10:24:18;22.00;83.20
56044;DHT22;41912;51.022;3.664;2022-07-10T10:26:44;22.10;83.70
56044;DHT22;41912;51.022;3.664;2022-07-10T10:29:16;22.10;81.50
56044;DHT22;41912;51.022;3.664;2022-07-10T10:31:42;22.20;83.20
56044;DHT22;41912;51.022;3.664;2022-07-10T10:34:08;22.30;83.10
56044;DHT22;41912;51.022;3.664;2022-07-10T10:39:13;22.30;81.90
56044;DHT22;41912;51.022;3.664;2022-07-10T10:41:41;22.30;81.10
56044;DHT22;41912;51.022;3.664;2022-07-10T10:46:35;22.40;82.70
56044;DHT22;41912;51.022;3.664;2022-07-10T10:49:08;22.50;81.20
56044;DHT22;41912;51.022;3.664;2022-07-10T10:51:56;22.70;81.10
56044;DHT22;41912;51.022;3.664;2022-07-10T10:54:22;22.90;81.20
56044;DHT22;41912;51.022;3.664;2022-07-10T10:57:10;23.00;80.70
56044;DHT22;41912;51.022;3.664;2022-07-10T10:59:51;23.00;78.40
56044;DHT22;41912;51.022;3.664;2022-07-10T11:02:36;23.00;78.20
56044;DHT22;41912;51.022;3.664;2022-07-10T11:07:58;23.00;78.30
56044;DHT22;41912;51.022;3.664;2022-07-10T11:15:28;23.10;79.00
56044;DHT22;41912;51.022;3.664;2022-07-10T11:20:24;23.40;77.30
56044;DHT22;41912;51.022;3.664;2022-07-10T11:25:52;23.40;78.70
56044;DHT22;41912;51.022;3.664;2022-07-10T11:28:59;23.40;76.80
56044;DHT22;41912;51.022;3.664;2022-07-10T11:31:40;23.50;78.40
56044;DHT22;41912;51.022;3.664;2022-07-10T11:34:12;23.60;78.60
56044;DHT22;41912;51.022;3.664;2022-07-10T11:36:39;23.70;77.00
56044;DHT22;41912;51.022;3.664;2022-07-10T11:39:07;23.80;77.20
56044;DHT22;41912;51.022;3.664;2022-07-10T11:41:33;23.80;77.80
56044;DHT22;41912;51.022;3.664;2022-07-10T11:44:16;23.80;76.20
56044;DHT22;41912;51.022;3.664;2022-07-10T11:46:43;23.90;77.20
56044;DHT22;41912;51.022;3.664;2022-07-10T11:49:14;23.90;77.60
56044;DHT22;41912;51.022;3.664;2022-07-10T11:51:41;24.00;77.50
56044;DHT22;41912;51.022;3.664;2022-07-10T11:54:09;24.10;74.70
56044;DHT22;41912;51.022;3.664;2022-07-10T11:56:39;24.30;76.80
56044;DHT22;41912;51.022;3.664;2022-07-10T11:59:08;24.40;75.00
56044;DHT22;41912;51.022;3.664;2022-07-10T12:01:40;24.50;76.50
56044;DHT22;41912;51.022;3.664;2022-07-10T12:04:07;24.60;74.60
56044;DHT22;41912;51.022;3.664;2022-07-10T12:06:36;24.60;74.30
56044;DHT22;41912;51.022;3.664;2022-07-10T12:09:07;24.70;75.10
56044;DHT22;41912;51.022;3.664;2022-07-10T12:11:33;24.70;73.50
56044;DHT22;41912;51.022;3.664;2022-07-10T12:16:35;24.60;73.90
56044;DHT22;41912;51.022;3.664;2022-07-10T12:19:01;24.60;75.20
56044;DHT22;41912;51.022;3.664;2022-07-10T12:21:27;24.60;74.00
56044;DHT22;41912;51.022;3.664;2022-07-10T12:23:53;24.70;73.90
56044;DHT22;41912;51.022;3.664;2022-07-10T12:26:19;24.80;74.40
56044;DHT22;41912;51.022;3.664;2022-07-10T12:28:52;24.80;73.10
56044;DHT22;41912;51.022;3.664;2022-07-10T12:31:26;25.00;74.00
56044;DHT22;41912;51.022;3.664;2022-07-10T12:33:54;25.00;71.80
56044;DHT22;41912;51.022;3.664;2022-07-10T12:36:25;25.10;74.60
56044;DHT22;41912;51.022;3.664;2022-07-10T12:38:55;25.20;73.80
56044;DHT22;41912;51.022;3.664;2022-07-10T12:41:23;25.40;70.40
56044;DHT22;41912;51.022;3.664;2022-07-10T12:43:51;25.40;71.80
56044;DHT22;41912;51.022;3.664;2022-07-10T12:46:22;25.50;73.20
56044;DHT22;41912;51.022;3.664;2022-07-10T12:49:20;25.50;70.30
56044;DHT22;41912;51.022;3.664;2022-07-10T12:51:47;25.60;69.60
56044;DHT22;41912;51.022;3.664;2022-07-10T12:56:40;25.60;71.20
56044;DHT22;41912;51.022;3.664;2022-07-10T12:59:13;25.70;73.10
56044;DHT22;41912;51.022;3.664;2022-07-10T13:04:10;25.80;70.60
56044;DHT22;41912;51.022;3.664;2022-07-10T13:06:37;25.90;70.70
56044;DHT22;41912;51.022;3.664;2022-07-10T13:09:17;26.00;69.50
56044;DHT22;41912;51.022;3.664;2022-07-10T13:11:43;26.10;70.00
56044;DHT22;41912;51.022;3.664;2022-07-10T13:14:08;26.20;71.40
56044;DHT22;41912;51.022;3.664;2022-07-10T13:16:34;26.30;70.00
56044;DHT22;41912;51.022;3.664;2022-07-10T13:19:00;26.30;70.10
56044;DHT22;41912;51.022;3.664;2022-07-10T13:21:26;26.30;68.60
56044;DHT22;41912;51.022;3.664;2022-07-10T13:23:51;26.40;67.60
56044;DHT22;41912;51.022;3.664;2022-07-10T13:26:17;26.40;66.90
56044;DHT22;41912;51.022;3.664;2022-07-10T13:28:42;26.50;69.40
56044;DHT22;41912;51.022;3.664;2022-07-10T13:31:08;26.60;69.10
56044;DHT22;41912;51.022;3.664;2022-07-10T13:33:35;26.70;66.90
56044;DHT22;41912;51.022;3.664;2022-07-10T13:36:02;26.70;66.70
56044;DHT22;41912;51.022;3.664;2022-07-10T13:38:28;26.70;68.00
56044;DHT22;41912;51.022;3.664;2022-07-10T13:40:54;26.80;69.00
56044;DHT22;41912;51.022;3.664;2022-07-10T13:43:19;26.80;67.30
56044;DHT22;41912;51.022;3.664;2022-07-10T13:45:47;26.90;65.70
56044;DHT22;41912;51.022;3.664;2022-07-10T13:48:21;26.90;65.10
56044;DHT22;41912;51.022;3.664;2022-07-10T13:50:47;26.90;65.40
56044;DHT22;41912;51.022;3.664;2022-07-10T13:53:13;27.00;65.90
56044;DHT22;41912;51.022;3.664;2022-07-10T13:55:39;27.00;67.20
56044;DHT22;41912;51.022;3.664;2022-07-10T13:58:05;27.00;64.20
56044;DHT22;41912;51.022;3.664;2022-07-10T14:00:31;27.00;66.80
56044;DHT22;41912;51.022;3.664;2022-07-10T14:02:57;27.00;62.80
56044;DHT22;41912;51.022;3.664;2022-07-10T14:05:23;27.00;64.40
56044;DHT22;41912;51.022;3.664;2022-07-10T14:07:49;27.00;63.20
56044;DHT22;41912;51.022;3.664;2022-07-10T14:10:15;27.00;65.10
56044;DHT22;41912;51.022;3.664;2022-07-10T14:12:41;27.00;64.60
56044;DHT22;41912;51.022;3.664;2022-07-10T14:17:35;27.20;65.90
56044;DHT22;41912;51.022;3.664;2022-07-10T14:22:26;27.40;65.60
56044;DHT22;41912;51.022;3.664;2022-07-10T14:24:52;27.50;62.00
56044;DHT22;41912;51.022;3.664;2022-07-10T14:27:19;27.40;61.70
56044;DHT22;41912;51.022;3.664;2022-07-10T14:29:45;27.40;63.60
56044;DHT22;41912;51.022;3.664;2022-07-10T14:32:10;27.30;62.00
56044;DHT22;41912;51.022;3.664;2022-07-10T14:34:36;27.40;62.00
56044;DHT22;41912;51.022;3.664;2022-07-10T14:37:02;27.40;63.40
56044;DHT22;41912;51.022;3.664;2022-07-10T14:39:28;27.50;60.80
56044;DHT22;41912;51.022;3.664;2022-07-10T14:41:53;27.50;60.80
56044;DHT22;41912;51.022;3.664;2022-07-10T14:44:19;27.50;60.20
56044;DHT22;41912;51.022;3.664;2022-07-10T14:46:45;27.50;60.50
56044;DHT22;41912;51.022;3.664;2022-07-10T14:49:10;27.60;60.20
56044;DHT22;41912;51.022;3.664;2022-07-10T14:51:36;27.60;62.00
56044;DHT22;41912;51.022;3.664;2022-07-10T14:54:02;27.70;62.00
56044;DHT22;41912;51.022;3.664;2022-07-10T14:56:28;27.90;60.90
56044;DHT22;41912;51.022;3.664;2022-07-10T14:58:54;27.90;59.80
56044;DHT22;41912;51.022;3.664;2022-07-10T15:01:20;27.90;59.10
56044;DHT22;41912;51.022;3.664;2022-07-10T15:03:45;27.90;60.10
56044;DHT22;41912;51.022;3.664;2022-07-10T15:06:11;27.90;59.30
56044;DHT22;41912;51.022;3.664;2022-07-10T15:08:37;27.90;60.00
56044;DHT22;41912;51.022;3.664;2022-07-10T15:11:03;28.00;58.50
56044;DHT22;41912;51.022;3.664;2022-07-10T15:13:30;28.00;57.30
56044;DHT22;41912;51.022;3.664;2022-07-10T15:15:56;28.00;58.70
56044;DHT22;41912;51.022;3.664;2022-07-10T15:18:21;28.10;58.10
56044;DHT22;41912;51.022;3.664;2022-07-10T15:20:48;28.10;58.60
56044;DHT22;41912;51.022;3.664;2022-07-10T15:23:14;28.10;57.00
56044;DHT22;41912;51.022;3.664;2022-07-10T15:25:55;28.10;56.50
56044;DHT22;41912;51.022;3.664;2022-07-10T15:28:21;28.20;57.80
56044;DHT22;41912;51.022;3.664;2022-07-10T15:30:47;28.30;57.80
56044;DHT22;41912;51.022;3.664;2022-07-10T15:33:12;28.30;55.10
56044;DHT22;41912;51.022;3.664;2022-07-10T15:35:38;28.20;56.10
56044;DHT22;41912;51.022;3.664;2022-07-10T15:38:03;28.10;57.30
56044;DHT22;41912;51.022;3.664;2022-07-10T15:40:30;28.20;56.30
56044;DHT22;41912;51.022;3.664;2022-07-10T15:42:58;28.10;56.00
56044;DHT22;41912;51.022;3.664;2022-07-10T15:45:25;28.20;56.40
56044;DHT22;41912;51.022;3.664;2022-07-10T15:47:51;28.10;55.70
56044;DHT22;41912;51.022;3.664;2022-07-10T15:50:17;28.10;56.70
56044;DHT22;41912;51.022;3.664;2022-07-10T15:52:42;28.10;55.00
56044;DHT22;41912;51.022;3.664;2022-07-10T15:55:10;28.00;54.70
56044;DHT22;41912;51.022;3.664;2022-07-10T15:57:36;27.90;55.80
56044;DHT22;41912;51.022;3.664;2022-07-10T16:00:04;27.90;56.00
56044;DHT22;41912;51.022;3.664;2022-07-10T16:02:30;27.90;56.00
56044;DHT22;41912;51.022;3.664;2022-07-10T16:04:55;27.80;56.40
56044;DHT22;41912;51.022;3.664;2022-07-10T16:07:21;27.70;55.90
56044;DHT22;41912;51.022;3.664;2022-07-10T16:09:47;27.60;55.40
56044;DHT22;41912;51.022;3.664;2022-07-10T16:12:14;27.60;55.60
56044;DHT22;41912;51.022;3.664;2022-07-10T16:17:05;27.40;56.70
56044;DHT22;41912;51.022;3.664;2022-07-10T16:19:37;27.40;56.90
56044;DHT22;41912;51.022;3.664;2022-07-10T16:22:03;27.50;56.60
56044;DHT22;41912;51.022;3.664;2022-07-10T16:24:29;27.60;56.50
56044;DHT22;41912;51.022;3.664;2022-07-10T16:26:55;27.60;55.10
56044;DHT22;41912;51.022;3.664;2022-07-10T16:29:20;27.60;56.00
56044;DHT22;41912;51.022;3.664;2022-07-10T16:31:51;27.60;56.20
56044;DHT22;41912;51.022;3.664;2022-07-10T16:34:16;27.50;56.10